East Dickinson, New York
Current Conditions -  °F | °C
As of 7:53 PM on Tuesday 25 Nov 2014 (Local Time) from KMSS Reporting Station
Overcast Overcast  
Wind Chill: 29°   Ceiling: 3600
Heat Index: 39°   Visibility: 10mi
Dew Point: 27°   Wind: 20mph
Humidity: 62%   Direction: 240°WSW
Pressure: 30.02"   Gusts: 29mph
Location:  44.7201°N, 74.5365°W
Report Text: KMSS 260053Z AUTO 24017G25KT 10SM BKN036 OVC055 04/M03 A3002 RMK AO2 PK WND 22028/0029 SLP168 T00391028
Loading
Personal Weather Stations






























Interactive Weather Map New forecast layout! Learn more

10-Day Weather Forecast

Advertisements
Track Severe Weather on mobile